Wetter

Link zur aktuellen Windanzeige


Nordholz:

METAR:

2021/07/25 18:20 ETMN 251820Z 03007KT 9999 FEW040TCU 24/17 Q1008 BLU+

TAF:

2021/07/23 11:32 TAF ETMN 231019Z 2311/2320 31005KT 9999 NSW SCT020 BKN023 TEMPO 2311/2314 31005KT 9999 NSW SCT020 BKN030

Wind EDXN:

25.07. 13:40z 170/09G15kt
25.07. 13:50z 210/09G15kt
25.07. 14:00z 200/09G15kt
25.07. 14:10z 200/10G15kt 150V230
25.07. 14:20z 200/10G15kt 160V230
25.07. 14:30z 200/09G15kt 170V230
25.07. 14:40z 200/09G15kt
25.07. 14:50z 190/07G12kt 160V220
25.07. 15:00z 190/06G13kt 150V240
25.07. 15:10z 180/04G13kt 110V250

Bremen:

METAR:

2021/07/25 18:50 EDDW 251850Z 15003KT 9999 FEW045TCU 24/16 Q1008 NOSIG

TAF:

2021/07/25 18:27 TAF EDDW 251700Z 2518/2618 17007KT 9999 FEW040 BECMG 2518/2520 11004KT TEMPO 2602/2606 2000 BCFG BECMG 2607/2609 21006KT BECMG 2612/2614 SCT040CB PROB40 TEMPO 2613/2618 21020G35KT 4000 TSRAGR

Hamburg:

METAR:

2021/07/25 18:50 EDDH 251850Z 06006KT 9999 FEW060CB 23/17 Q1009 NOSIG

TAF:

2021/07/25 18:27 TAF EDDH 251700Z 2518/2624 29005KT 9999 FEW045 BECMG 2518/2520 08004KT TEMPO 2601/2606 2000 BCFG BECMG 2609/2611 16005KT BECMG 2612/2614 SCT040CB PROB40 TEMPO 2613/2619 20020G35KT 4000 TSRAGR BECMG 2618/2620 FEW040

Hannover:

METAR:

2021/07/25 18:50 EDDV 251850Z VRB01KT CAVOK 23/17 Q1009 NOSIG

TAF:

2021/07/25 18:27 TAF TAF EDDV 251700Z 2518/2618 17005KT 9999 FEW045 BECMG 2518/2520 10004KT TEMPO 2600/2606 3500 BR PROB30 TEMPO 2600/2606 1200 BCFG BECMG 2611/2613 SCT045CB PROB40 TEMPO 2613/2618 23020G35KT 4000 TSRAGR

Wikipedia Artikel: METARTAF

Daten von Aviation Weather Center der NOAA, es kann keine Garantie für Aktualität und Richtigkeit der Daten übernommen werden.

Die Nutzung dieser Daten zur Flugplanung ist nicht zulässig!

Inoffizielle ATIS 🙂